CW7520 Weather Reports


Display with metric or nautical units.
time (UTC)temp
F
wind
direction
speed
MPH
gust
MPH
rain 1hr
in
rain 24hr
in
rain mn
in
humidity
%
barometer
mb
20220927121327 56 155 4.0 11.0 0.01 0.22 0.22 89 1013.9
20220927120429 56 156 4.0 8.0 0.00 0.00 0.22 89 1014.0
20220927115826 56 160 4.0 10.0 0.02 0.22 0.22 89 1014.0
20220927114928 56 156 4.0 8.0 0.02 0.22 0.22 89 1013.8
20220927114031 56 161 4.0 10.0 0.02 0.22 0.22 89 1013.8
20220927113128 56 161 3.0 8.0 0.02 0.22 0.22 89 1013.8
20220927112231 56 162 1.0 7.0 0.03 0.22 0.22 89 1013.9
20220927111328 56 161 1.0 6.0 0.02 0.21 0.21 89 1013.9
20220927110430 56 153 2.0 7.0 0.02 0.20 0.20 88 1014.0
20220927105827 56 142 2.0 8.0 0.02 0.20 0.20 88 1013.9
20220927104929 56 159 2.0 11.0 0.00 0.00 0.20 88 1013.9
20220927104026 56 151 3.0 9.0 0.02 0.20 0.20 88 1013.8
20220927103129 56 157 2.0 9.0 0.01 0.20 0.20 88 1013.8
20220927102226 56 161 3.0 9.0 0.00 0.19 0.19 88 1013.7
20220927101328 56 163 3.0 9.0 0.00 0.19 0.19 88 1013.5
20220927100441 56 160 3.0 13.0 0.00 0.19 0.19 88 1013.5
20220927095827 56 150 3.0 13.0 0.00 0.19 0.19 88 1013.4
20220927094930 56 157 3.0 11.0 0.00 0.19 0.19 88 1013.4
20220927094027 56 145 4.0 9.0 0.00 0.19 0.19 88 1013.3
20220927093129 56 156 4.0 17.0 0.00 0.19 0.19 88 1013.0
20220927092227 56 162 4.0 14.0 0.00 0.19 0.19 87 1012.8
20220927091329 56 157 4.0 12.0 0.01 0.19 0.19 87 1012.8
20220927090426 56 155 4.0 10.0 0.02 0.19 0.19 87 1012.7
20220927085828 56 162 5.0 12.0 0.02 0.19 0.19 87 1012.5
20220927084930 57 165 6.0 16.0 0.02 0.19 0.19 87 1012.4
20220927084033 57 161 4.0 13.0 0.02 0.19 0.19 87 1012.3
20220927084028 57 162 4.0 13.0 0.02 0.19 0.19 87 1012.3
20220927083130 57 158 4.0 11.0 0.02 0.19 0.19 86 1012.2
20220927082227 57 154 3.0 11.0 0.02 0.19 0.19 86 1012.2
20220927081330 57 142 2.0 10.0 0.02 0.18 0.18 86 1012.0
20220927080427 57 151 3.0 9.0 0.02 0.17 0.17 86 1012.0
20220927075829 57 152 4.0 9.0 0.02 0.17 0.17 86 1011.9
20220927074931 58 148 3.0 11.0 0.02 0.17 0.17 85 1011.7
20220927074028 58 154 4.0 14.0 0.02 0.17 0.17 85 1011.7
20220927073131 58 148 4.0 14.0 0.02 0.17 0.17 85 1011.5
20220927072228 58 141 3.0 12.0 0.02 0.17 0.17 85 1011.4
20220927071330 59 149 4.0 9.0 0.00 0.00 0.17 84 1011.3
20220927070428 59 153 4.0 9.0 0.00 0.16 0.16 84 1011.2
20220927065829 59 149 4.0 12.0 0.00 0.16 0.16 84 1011.1
20220927064927 59 143 4.0 12.0 0.00 0.17 0.16 83 1011.1
20220927064029 59 154 3.0 14.0 0.00 0.17 0.16 83 1010.9
20220927063126 60 146 5.0 15.0 0.00 0.19 0.16 82 1010.8
20220927062229 60 152 4.0 16.0 0.00 0.20 0.16 82 1010.8
20220927061326 60 150 5.0 18.0 0.00 0.22 0.16 82 1010.7
20220927060428 60 159 6.0 16.0 0.00 0.24 0.16 83 1010.5
20220927055830 60 161 5.0 16.0 0.00 0.25 0.16 83 1010.4
20220927054927 61 161 3.0 11.0 0.00 0.25 0.16 83 1010.6
20220927054029 61 160 2.0 7.0 0.00 0.26 0.16 84 1010.6
20220927053127 61 176 2.0 5.0 0.00 0.27 0.16 84 1010.7
20220927052229 61 169 2.0 6.0 0.00 0.27 0.16 84 1010.6
20220927051326 61 157 1.0 5.0 0.00 0.27 0.16 84 1010.6
20220927050429 61 152 2.0 4.0 0.00 0.27 0.16 84 1010.6
20220927045831 61 152 2.0 11.0 0.00 0.28 0.16 85 1010.7
20220927044928 62 163 2.0 7.0 0.00 0.28 0.16 85 1010.8
20220927044030 62 176 2.0 6.0 0.00 0.28 0.16 86 1010.8
20220927043128 61 185 2.0 6.0 0.00 0.28 0.16 86 1010.9
20220927042230 61 186 2.0 5.0 0.01 0.28 0.16 86 1010.9
20220927041327 61 191 2.0 6.0 0.02 0.28 0.16 86 1011.1
20220927040429 60 188 4.0 7.0 0.06 0.28 0.16 88 1011.0
20220927035831 60 177 3.0 7.0 0.10 0.28 0.16 86 1011.0
20220927034929 60 185 2.0 5.0 0.11 0.28 0.16 86 1011.0
20220927034031 59 190 2.0 3.0 0.11 0.28 0.16 85 1011.1
20220927033128 59 194 3.0 9.0 0.00 0.00 0.16 84 1011.2
20220927032230 59 193 3.0 7.0 0.11 0.27 0.15 84 1011.4
20220927032225 59 194 3.0 7.0 0.11 0.27 0.15 84 1011.4
20220927031328 59 196 2.0 5.0 0.09 0.25 0.14 84 1011.6
20220927030430 59 188 2.0 6.0 0.06 0.21 0.10 83 1011.6
20220927025827 59 200 3.0 6.0 0.02 0.17 0.06 83 1011.7
20220927024929 59 203 3.0 7.0 0.02 0.17 0.05 83 1011.7
20220927024032 59 207 3.0 7.0 0.02 0.17 0.05 82 1011.8
20220927023129 59 212 3.0 7.0 0.02 0.16 0.04 81 1011.9
20220927022226 59 213 2.0 7.0 0.03 0.16 0.04 80 1011.9
20220927021328 59 217 0.0 4.0 0.04 0.16 0.04 79 1012.0
20220927020431 59 125 1.0 1.0 0.04 0.16 0.04 78 1012.0
20220927015832 59 151 1.0 4.0 0.03 0.15 0.03 78 1012.0
20220927014930 59 164 0.0 4.0 0.03 0.15 0.03 77 1012.0
20220927014027 59 163 1.0 5.0 0.02 0.13 0.02 76 1012.2
20220927013129 60 122 1.0 7.0 0.02 0.13 0.02 76 1012.2
20220927012227 60 144 2.0 4.0 0.01 0.13 0.01 76 1012.2
20220927011329 60 147 4.0 10.0 0.00 0.12 0.00 75 1012.1
20220927010426 60 159 4.0 10.0 0.00 0.12 0.00 75 1012.1
20220927005828 60 164 4.0 10.0 0.00 0.12 0.00 76 1012.1
20220927004931 60 159 4.0 14.0 0.00 0.12 0.00 76 1012.1
20220927004028 60 157 5.0 11.0 0.00 0.12 0.00 78 1012.2
20220927003130 60 162 6.0 12.0 0.00 0.12 0.00 80 1012.1
20220927002237 60 162 4.0 14.0 0.00 0.12 0.00 81 1012.1
20220927002232 60 159 4.0 15.0 0.00 0.12 0.00 81 1012.1
20220927001330 60 159 5.0 7.0 0.00 0.12 0.00 83 1012.1
20220927000427 60 175 6.0 11.0 0.00 0.12 0.00 85 1012.3
20220926235829 59 175 5.0 11.0 0.00 0.12 0.00 86 1012.2
20220926234926 58 185 4.0 12.0 0.00 0.12 0.00 87 1012.2
20220926234028 58 190 3.0 12.0 0.00 0.12 0.00 88 1012.2
20220926233131 58 200 3.0 4.0 0.00 0.12 0.00 88 1012.3
20220926232228 57 194 4.0 7.0 0.00 0.12 0.00 89 1012.4
20220926231330 57 188 3.0 8.0 0.00 0.12 0.00 89 1012.4
20220926225829 56 198 4.0 8.0 0.00 0.12 0.00 90 1012.4
20220926224927 56 186 4.0 8.0 0.00 0.12 0.00 90 1012.4
20220926224029 55 197 4.0 9.0 0.00 0.12 0.00 90 1012.4
20220926223126 55 192 3.0 8.0 0.00 0.12 0.00 90 1012.4
20220926222228 54 193 2.0 6.0 0.00 0.12 0.00 90 1012.4
20220926221326 54 190 1.0 5.0 0.00 0.12 0.00 90 1012.5
20220926220428 53 184 1.0 5.0 0.00 0.12 0.00 90 1012.6
20220926215830 53 192 1.0 3.0 0.00 0.12 0.00 90 1012.5
20220926214927 53 211 1.0 2.0 0.00 0.12 0.00 90 1012.5
20220926214030 53 211 1.0 3.0 0.00 0.12 0.00 90 1012.5
20220926213127 53 220 0.0 3.0 0.00 0.12 0.00 89 1012.5
20220926212229 52 0 0.0 2.0 0.00 0.12 0.00 89 1012.5
20220926211328 52 0 0.0 2.0 0.00 0.12 0.00 89 1012.5
20220926211326 52 0 0.0 2.0 0.00 0.12 0.00 89 1012.4
20220926210429 52 0 0.0 2.0 0.00 0.12 0.00 89 1012.3
20220926205830 52 0 0.0 0.0 0.00 0.12 0.00 89 1012.3
20220926204928 52 0 0.0 0.0 0.00 0.12 0.00 89 1012.3
20220926204030 52 0 0.0 1.0 0.00 0.12 0.00 89 1012.3
20220926203127 52 0 0.0 2.0 0.00 0.12 0.00 89 1012.3
20220926202235 52 0 0.0 1.0 0.00 0.12 0.00 89 1012.3
20220926201327 52 0 0.0 0.0 0.00 0.12 0.00 89 1012.2
20220926200429 52 0 0.0 0.0 0.00 0.12 0.00 89 1012.1
20220926195826 52 0 0.0 0.0 0.00 0.12 0.00 89 1012.1
20220926194934 52 0 0.0 0.0 0.00 0.12 0.00 89 1012.1
20220926194031 52 0 0.0 0.0 0.00 0.12 0.00 89 1012.0
20220926193128 52 0 0.0 0.0 0.00 0.12 0.00 89 1012.0
20220926192230 52 0 0.0 0.0 0.00 0.12 0.00 89 1011.9
20220926191328 52 0 0.0 0.0 0.00 0.12 0.00 89 1011.9
20220926190430 52 0 0.0 0.0 0.00 0.12 0.00 89 1011.9
20220926185827 52 0 0.0 0.0 0.00 0.12 0.00 89 1011.8
20220926184929 52 0 0.0 0.0 0.00 0.12 0.00 89 1011.9
20220926184026 52 0 0.0 0.0 0.00 0.12 0.00 89 1011.9
20220926183132 52 0 0.0 0.0 0.00 0.12 0.00 89 1012.0
20220926182226 52 0 0.0 0.0 0.00 0.12 0.00 89 1012.0
20220926181328 52 0 0.0 0.0 0.00 0.12 0.00 89 1012.0
20220926180431 52 0 0.0 0.0 0.00 0.12 0.00 89 1012.0
20220926175827 52 0 0.0 0.0 0.00 0.12 0.00 89 1012.0
20220926174930 52 0 0.0 0.0 0.00 0.12 0.00 89 1012.1
20220926174027 52 0 0.0 0.0 0.00 0.12 0.00 89 1012.0
20220926173130 52 0 0.0 0.0 0.00 0.12 0.00 89 1012.0
20220926172227 52 0 0.0 0.0 0.00 0.00 0.00 89 1012.0
20220926171329 52 0 0.0 0.0 0.00 0.12 0.00 89 1012.0
20220926170426 52 0 0.0 0.0 0.00 0.12 0.00 89 1012.1
20220926165828 52 0 0.0 0.0 0.00 0.12 0.00 89 1012.1
20220926164935 52 0 0.0 0.0 0.00 0.12 0.00 89 1012.1
20220926164028 52 0 0.0 0.0 0.00 0.12 0.00 89 1012.1
20220926163130 52 0 0.0 0.0 0.00 0.12 0.00 89 1012.0
20220926162227 52 0 0.0 0.0 0.00 0.12 0.00 89 1012.1
20220926161330 52 0 0.0 0.0 0.00 0.12 0.00 89 1012.3
20220926160427 52 247 0.0 4.0 0.00 0.12 0.00 88 1012.4
20220926155828 52 247 0.0 4.0 0.00 0.12 0.00 89 1012.5
20220926154931 52 0 0.0 0.0 0.00 0.12 0.00 89 1012.4
20220926154028 52 0 0.0 0.0 0.00 0.12 0.00 89 1012.5
20220926153131 52 0 0.0 1.0 0.00 0.12 0.00 88 1012.7
20220926152228 52 0 0.0 2.0 0.00 0.12 0.00 88 1012.7
20220926151330 52 0 0.0 0.0 0.00 0.12 0.00 88 1012.9
20220926150431 52 0 0.0 0.0 0.00 0.12 0.00 88 1013.0
20220926145829 52 0 0.0 0.0 0.00 0.00 0.00 88 1013.1
20220926144926 52 0 0.0 0.0 0.00 0.00 0.00 88 1013.2
20220926144029 52 0 0.0 0.0 0.00 0.12 0.00 88 1013.2
20220926143127 52 0 0.0 0.0 0.00 0.12 0.00 88 1013.1
20220926142228 52 0 0.0 0.0 0.00 0.12 0.00 88 1013.1
20220926141326 52 0 0.0 0.0 0.00 0.12 0.00 88 1013.1
20220926140428 52 0 0.0 0.0 0.00 0.12 0.00 88 1013.1
20220926135830 52 0 0.0 0.0 0.00 0.12 0.12 88 1013.2
20220926134930 52 0 0.0 0.0 0.00 0.12 0.12 88 1013.2
20220926134029 52 0 0.0 0.0 0.00 0.12 0.12 88 1013.2
20220926133127 52 0 0.0 0.0 0.00 0.12 0.12 88 1013.3
20220926132229 52 0 0.0 0.0 0.00 0.12 0.12 88 1013.3
20220926131327 52 0 0.0 0.0 0.00 0.12 0.12 88 1013.4
20220926130429 52 0 0.0 0.0 0.00 0.12 0.12 88 1013.5
20220926125831 52 0 0.0 0.0 0.00 0.12 0.12 88 1013.4
20220926124928 52 0 0.0 0.0 0.00 0.12 0.12 88 1013.5
20220926124030 52 0 0.0 0.0 0.00 0.12 0.12 88 1013.6
20220926123128 52 0 0.0 0.0 0.00 0.12 0.12 88 1013.5
20220926122230 52 0 0.0 0.0 0.00 0.12 0.12 88 1013.7